Time;durP1;ratioP1;P1;durP2;ratioP2;P2;SDS_P1;SDS_P2;PMS_P1;PMS_P2;Temp;Humidity;BMP_temperature;BMP_pressure;BME280_temperature;BME280_humidity;BME280_pressure;Samples;Min_cycle;Max_cycle;Signal;HPM_P1;HPM_P2
2022/12/10 00:01:53;;;;;;;;;;;;;;;4.94;100.00;99027.44;4999777;28;20016;-81
2022/12/10 00:04:19;;;;;;;;;;;;;;;4.96;100.00;99025.47;5000622;28;19933;-80
2022/12/10 00:06:45;;;;;;;;;;;;;;;4.84;100.00;99021.53;5000019;28;19921;-80
2022/12/10 00:09:12;;;;;;;;;;;;;;;5.01;100.00;99025.78;5010819;28;19944;-80
2022/12/10 00:11:38;;;;;;;;;;;;;;;5.12;100.00;99020.22;5019549;28;20364;-80
2022/12/10 00:14:03;;;;;;;;;;;;;;;5.08;100.00;99024.16;5019444;28;20012;-80
2022/12/10 00:16:30;;;;;;;;;;;;;;;5.15;100.00;99014.63;5019591;28;20024;-81
2022/12/10 00:18:56;;;;;;;;;;;;;;;5.11;100.00;99013.31;5019680;28;20413;-80
2022/12/10 00:21:25;;;;;;;;;;;;;;;5.14;100.00;99010.38;5019386;28;19913;-81
2022/12/10 00:23:51;;;;;;;;;;;;;;;5.11;100.00;99003.63;5019718;28;19932;-80
2022/12/10 00:26:18;;;;;;;;;;;;;;;5.16;100.00;98995.28;5019934;28;20306;-80
2022/12/10 00:28:44;;;;;;;;;;;;;;;5.11;100.00;99002.81;5019885;28;19967;-81
2022/12/10 00:31:17;;;;;;;;;;;;;;;4.95;100.00;98997.56;5018513;28;19922;-81
2022/12/10 00:33:43;;;;;;;;;;;;;;;4.95;100.00;98997.56;5017707;28;19922;-81
2022/12/10 00:36:11;;;;;;;;;;;;;;;5.14;100.00;99002.47;4999996;28;20327;-80
2022/12/10 00:38:37;;;;;;;;;;;;;;;5.18;100.00;98988.03;4999496;28;20261;-80
2022/12/10 00:41:02;;;;;;;;;;;;;;;5.09;100.00;98995.13;4998488;28;19926;-79
2022/12/10 00:43:28;;;;;;;;;;;;;;;5.15;100.00;98993.63;4997034;28;20143;-81
2022/12/10 00:45:54;;;;;;;;;;;;;;;5.14;100.00;98994.59;4995523;28;20325;-81
2022/12/10 00:48:20;;;;;;;;;;;;;;;5.34;100.00;99002.97;4997310;28;20374;-82
2022/12/10 00:50:54;;;;;;;;;;;;;;;5.33;100.00;98991.66;4996339;28;19944;-80
2022/12/10 00:53:19;;;;;;;;;;;;;;;5.08;100.00;98997.91;4998068;28;20020;-81
2022/12/10 00:55:45;;;;;;;;;;;;;;;5.20;100.00;98991.34;4997753;28;19968;-81
2022/12/10 00:58:10;;;;;;;;;;;;;;;5.11;100.00;98987.06;4996161;28;19926;-80
2022/12/10 01:00:36;;;;;;;;;;;;;;;4.95;100.00;98989.69;4998015;28;19922;-81
2022/12/10 01:03:01;;;;;;;;;;;;;;;4.83;100.00;98983.97;4997500;28;19965;-80
2022/12/10 01:05:26;;;;;;;;;;;;;;;4.78;100.00;98974.91;4996700;28;19922;-81
2022/12/10 01:07:53;;;;;;;;;;;;;;;4.81;100.00;98969.34;4997380;28;19921;-80
2022/12/10 01:10:18;;;;;;;;;;;;;;;4.85;100.00;98981.16;5005968;28;20018;-80
2022/12/10 01:12:45;;;;;;;;;;;;;;;4.82;100.00;98981.47;5015074;28;19968;-79
2022/12/10 01:15:11;;;;;;;;;;;;;;;4.88;100.00;98991.31;5016503;28;20016;-81
2022/12/10 01:17:36;;;;;;;;;;;;;;;5.06;100.00;98994.63;5015186;28;19992;-81
2022/12/10 01:20:02;;;;;;;;;;;;;;;4.97;100.00;98995.63;5016292;28;19917;-82
2022/12/10 01:22:27;;;;;;;;;;;;;;;4.96;100.00;98983.47;5014786;28;19968;-81
2022/12/10 01:24:53;;;;;;;;;;;;;;;4.84;100.00;98980.34;5016043;28;19921;-81
2022/12/10 01:27:18;;;;;;;;;;;;;;;4.84;100.00;98985.56;5017107;28;20227;-82
2022/12/10 01:29:43;;;;;;;;;;;;;;;4.81;100.00;98979.84;5016467;28;19994;-81
2022/12/10 01:32:09;;;;;;;;;;;;;;;4.84;100.00;98980.34;5014945;28;19922;-82
2022/12/10 01:34:37;;;;;;;;;;;;;;;4.81;100.00;98987.72;5014961;28;19921;-78
2022/12/10 01:37:03;;;;;;;;;;;;;;;4.85;100.00;98992.47;5016339;28;19921;-81
2022/12/10 01:39:30;;;;;;;;;;;;;;;4.82;100.00;98984.09;5015363;28;19977;-80
2022/12/10 01:41:58;;;;;;;;;;;;;;;4.80;100.00;98975.59;5015195;28;19925;-80
2022/12/10 01:44:23;;;;;;;;;;;;;;;4.79;100.00;98979.19;5016644;28;19925;-81
2022/12/10 01:46:50;;;;;;;;;;;;;;;4.86;100.00;98975.75;5015190;28;20297;-79
2022/12/10 01:49:15;;;;;;;;;;;;;;;4.78;100.00;98969.66;5014458;28;19921;-80
2022/12/10 01:51:44;;;;;;;;;;;;;;;4.77;100.00;98978.53;5014265;28;20311;-81
2022/12/10 01:54:11;;;;;;;;;;;;;;;4.81;100.00;98970.16;5013778;28;19922;-80
2022/12/10 01:56:40;;;;;;;;;;;;;;;4.75;100.00;98970.81;5015299;28;19921;-81
2022/12/10 01:59:06;;;;;;;;;;;;;;;4.74;100.00;98974.41;5014144;28;19922;-79
2022/12/10 02:01:36;;;;;;;;;;;;;;;4.80;100.00;98975.59;5015393;28;19928;-80
2022/12/10 02:04:25;;;;;;;;;;;;;;;4.79;100.00;98981.81;5015288;28;19945;-82
2022/12/10 02:06:58;;;;;;;;;;;;;;;4.67;100.00;98974.25;5014208;28;20400;-80
2022/12/10 02:09:34;;;;;;;;;;;;;;;4.87;100.00;98973.97;5015193;28;20281;-80
2022/12/10 02:12:08;;;;;;;;;;;;;;;4.73;100.00;98974.59;5014150;28;20305;-82
2022/12/10 02:14:40;;;;;;;;;;;;;;;4.86;100.00;98961.81;5013749;28;20343;-81
2022/12/10 02:17:12;;;;;;;;;;;;;;;4.69;100.00;98961.81;5013245;28;20412;-81
2022/12/10 02:19:38;;;;;;;;;;;;;;;4.67;100.00;98962.97;5013439;28;19929;-79
2022/12/10 02:22:05;;;;;;;;;;;;;;;4.58;100.00;98953.41;5013334;28;20285;-80
2022/12/10 02:24:33;;;;;;;;;;;;;;;4.55;100.00;98959.81;5013562;28;20290;-80
2022/12/10 02:27:14;;;;;;;;;;;;;;;4.65;100.00;98963.09;5013785;28;19928;-80
2022/12/10 02:29:41;;;;;;;;;;;;;;;4.69;100.00;98972.31;5014909;28;19922;-80
2022/12/10 02:32:09;;;;;;;;;;;;;;;4.90;100.00;98968.38;5015102;28;19927;-81
2022/12/10 02:34:47;;;;;;;;;;;;;;;5.11;100.00;98961.63;5013499;28;19917;-80
2022/12/10 02:37:16;;;;;;;;;;;;;;;5.12;100.00;98949.31;5013667;28;19929;-80
2022/12/10 02:39:45;;;;;;;;;;;;;;;4.99;100.00;98947.22;5014765;28;20008;-81
2022/12/10 02:42:11;;;;;;;;;;;;;;;4.83;100.00;98944.59;5013833;28;19929;-80
2022/12/10 02:44:37;;;;;;;;;;;;;;;4.71;100.00;98937.22;5013437;28;20273;-80
2022/12/10 02:47:05;;;;;;;;;;;;;;;4.87;100.00;98929.34;5013493;28;19921;-81
2022/12/10 02:49:39;;;;;;;;;;;;;;;4.91;100.00;98933.25;5013555;28;19926;-79
2022/12/10 02:52:06;;;;;;;;;;;;;;;4.85;100.00;98931.28;5013450;28;19921;-80
2022/12/10 02:54:37;;;;;;;;;;;;;;;4.93;100.00;98920.78;5013960;28;19963;-80
2022/12/10 02:57:15;;;;;;;;;;;;;;;4.91;100.00;98917.50;4997080;28;19921;-80
2022/12/10 02:59:51;;;;;;;;;;;;;;;4.82;100.00;98924.56;5013639;28;19921;-83
2022/12/10 03:02:19;;;;;;;;;;;;;;;4.76;100.00;98919.16;5014449;28;19921;-80
2022/12/10 03:05:11;;;;;;;;;;;;;;;4.83;100.00;98918.34;5013067;28;19927;-80
2022/12/10 03:07:40;;;;;;;;;;;;;;;4.75;100.00;98917.50;4983930;28;19922;-81
2022/12/10 03:10:17;;;;;;;;;;;;;;;4.91;100.00;98926.19;5014418;28;19921;-82
2022/12/10 03:12:45;;;;;;;;;;;;;;;5.02;100.00;98930.31;5014648;28;19925;-81
2022/12/10 03:15:11;;;;;;;;;;;;;;;4.85;100.00;98918.16;5014278;28;20018;-82
2022/12/10 03:17:39;;;;;;;;;;;;;;;5.06;100.00;98911.44;5014347;28;19926;-81
2022/12/10 03:20:08;;;;;;;;;;;;;;;5.28;100.00;98915.16;5013044;28;19924;-80
2022/12/10 03:22:34;;;;;;;;;;;;;;;5.07;100.00;98917.50;5014090;28;20047;-80
2022/12/10 03:25:00;;;;;;;;;;;;;;;4.95;100.00;98913.56;5013973;28;20031;-80
2022/12/10 03:27:27;;;;;;;;;;;;;;;4.90;100.00;98915.88;5013903;28;19925;-80
2022/12/10 03:29:54;;;;;;;;;;;;;;;4.68;100.00;98923.41;5013628;28;20578;-81
2022/12/10 03:32:21;;;;;;;;;;;;;;;4.65;100.00;98929.00;5013444;28;19921;-81
2022/12/10 03:34:47;;;;;;;;;;;;;;;4.90;100.00;98932.47;5013617;28;20028;-80
2022/12/10 03:37:14;;;;;;;;;;;;;;;4.65;100.00;98929.00;5013752;28;19929;-80
2022/12/10 03:39:40;;;;;;;;;;;;;;;4.86;100.00;98917.19;5013200;28;19921;-80
2022/12/10 03:42:06;;;;;;;;;;;;;;;4.85;100.00;98910.28;5013299;28;19973;-82
2022/12/10 03:44:37;;;;;;;;;;;;;;;4.69;100.00;98913.75;5013380;28;20267;-80
2022/12/10 03:47:04;;;;;;;;;;;;;;;4.67;100.00;98916.53;5013313;28;20000;-81
2022/12/10 03:49:30;;;;;;;;;;;;;;;4.88;100.00;98907.34;5013135;28;20393;-80
2022/12/10 03:51:55;;;;;;;;;;;;;;;5.17;100.00;98907.66;5012155;28;19922;-80
2022/12/10 03:54:21;;;;;;;;;;;;;;;4.82;100.00;98908.00;5013158;28;20079;-81
2022/12/10 03:56:46;;;;;;;;;;;;;;;5.04;100.00;98894.19;5013046;28;19917;-79
2022/12/10 03:59:12;;;;;;;;;;;;;;;5.11;100.00;98895.16;5013275;28;19921;-80
2022/12/10 04:01:37;;;;;;;;;;;;;;;5.09;100.00;98899.78;5013245;28;19925;-79
2022/12/10 04:04:03;;;;;;;;;;;;;;;5.03;100.00;98906.50;5013176;28;20381;-79
2022/12/10 04:06:29;;;;;;;;;;;;;;;5.23;100.00;98901.72;5013013;28;19929;-80
2022/12/10 04:08:54;;;;;;;;;;;;;;;5.23;100.00;98904.34;5013106;28;19962;-79
2022/12/10 04:11:19;;;;;;;;;;;;;;;5.18;100.00;98902.22;5013336;28;20389;-81
2022/12/10 04:16:29;;;;;;;;;;;;;;;5.08;100.00;98914.69;5013361;28;20025;-80
2022/12/10 04:19:00;;;;;;;;;;;;;;;5.09;100.00;98911.09;5015217;28;19968;-80
2022/12/10 04:26:57;;;;;;;;;;;;;;;5.23;100.00;98906.97;5016212;28;20378;-79
2022/12/10 04:29:25;;;;;;;;;;;;;;;5.03;100.00;98910.94;5016562;28;20285;-80
2022/12/10 04:31:50;;;;;;;;;;;;;;;5.22;100.00;98915.81;5016394;28;20035;-79
2022/12/10 04:34:16;;;;;;;;;;;;;;;5.19;100.00;98909.13;5015054;28;19961;-81
2022/12/10 04:36:41;;;;;;;;;;;;;;;5.14;100.00;98902.69;5016367;28;19928;-80
2022/12/10 04:39:06;;;;;;;;;;;;;;;5.21;100.00;98908.94;5016061;28;19925;-80
2022/12/10 04:41:32;;;;;;;;;;;;;;;5.25;100.00;98905.00;5016069;28;19979;-80
2022/12/10 04:43:57;;;;;;;;;;;;;;;5.07;100.00;98907.00;5016212;28;19921;-81
2022/12/10 04:46:24;;;;;;;;;;;;;;;5.05;100.00;98899.28;5014917;28;19917;-80
2022/12/10 04:48:49;;;;;;;;;;;;;;;5.22;100.00;98894.81;5017024;28;20020;-80
2022/12/10 04:51:15;;;;;;;;;;;;;;;5.37;100.00;98897.59;5016270;28;19976;-80
2022/12/10 04:53:40;;;;;;;;;;;;;;;5.48;100.00;98900.66;5014731;28;19925;-79
2022/12/10 04:56:06;;;;;;;;;;;;;;;5.45;100.00;98895.75;5015924;28;19921;-80
2022/12/10 04:58:32;;;;;;;;;;;;;;;5.21;100.00;98893.16;5016053;28;19918;-80
2022/12/10 05:01:04;;;;;;;;;;;;;;;5.37;100.00;98894.97;5015641;28;20426;-79
2022/12/10 05:03:30;;;;;;;;;;;;;;;5.52;100.00;98896.72;5015926;28;20290;-78
2022/12/10 05:05:55;;;;;;;;;;;;;;;5.55;100.00;98904.25;5016002;28;19917;-80
2022/12/10 05:08:21;;;;;;;;;;;;;;;5.70;100.00;98893.84;5015950;28;19921;-79
2022/12/10 05:10:46;;;;;;;;;;;;;;;5.66;100.00;98895.19;5014355;28;20276;-79
2022/12/10 05:13:11;;;;;;;;;;;;;;;5.40;100.00;98895.41;5015674;28;20386;-79
2022/12/10 05:15:40;;;;;;;;;;;;;;;5.57;100.00;98889.13;5015334;28;19928;-78
2022/12/10 05:18:05;;;;;;;;;;;;;;;5.29;100.00;98890.53;5014149;28;19921;-79
2022/12/10 05:20:31;;;;;;;;;;;;;;;4.98;100.00;98882.56;5015496;28;20017;-80
2022/12/10 05:26:01;;;;;;;;;;;;;;;4.84;100.00;98885.06;5015200;28;19921;-81
2022/12/10 05:28:25;;;;;;;;;;;;;;;4.76;100.00;98871.91;5009176;28;19922;-80
2022/12/10 05:30:51;;;;;;;;;;;;;;;4.69;100.00;98867.34;5008209;28;19928;-80
2022/12/10 05:33:17;;;;;;;;;;;;;;;4.68;100.00;98870.94;5004344;28;20021;-81
2022/12/10 05:35:43;;;;;;;;;;;;;;;4.68;100.00;98865.69;4997889;28;20008;-80
2022/12/10 05:38:10;;;;;;;;;;;;;;;4.56;100.00;98868.81;5004383;28;19932;-80
2022/12/10 05:40:38;;;;;;;;;;;;;;;4.44;100.00;98868.31;5006679;28;21018;-79
2022/12/10 05:43:06;;;;;;;;;;;;;;;4.49;100.00;98868.66;5008379;28;20032;-80
2022/12/10 05:45:32;;;;;;;;;;;;;;;4.39;100.00;98865.38;4999654;28;19937;-79
2022/12/10 05:47:58;;;;;;;;;;;;;;;4.39;100.00;98868.00;5005546;28;19929;-80
2022/12/10 05:50:23;;;;;;;;;;;;;;;4.49;100.00;98873.06;5004180;28;19925;-79
2022/12/10 05:52:50;;;;;;;;;;;;;;;4.74;100.00;98873.91;5002498;28;19930;-80
2022/12/10 05:55:15;;;;;;;;;;;;;;;4.74;100.00;98873.91;5013397;28;19976;-79
2022/12/10 05:57:40;;;;;;;;;;;;;;;4.73;100.00;98872.25;5010017;28;19925;-80
2022/12/10 06:00:06;;;;;;;;;;;;;;;4.55;100.00;98875.88;5011317;28;20293;-79
2022/12/10 06:02:37;;;;;;;;;;;;;;;4.64;100.00;98872.25;5022566;28;20329;-81
2022/12/10 06:05:03;;;;;;;;;;;;;;;4.58;100.00;98875.53;5012771;28;19925;-81
2022/12/10 06:07:29;;;;;;;;;;;;;;;4.63;100.00;98873.25;5014733;28;19922;-80
2022/12/10 06:09:54;;;;;;;;;;;;;;;4.58;100.00;98874.72;5014437;28;19921;-82
2022/12/10 06:12:20;;;;;;;;;;;;;;;4.41;100.00;98889.63;5016563;28;20020;-86
2022/12/10 06:14:46;;;;;;;;;;;;;;;4.45;100.00;98895.34;5017764;28;19971;-84
2022/12/10 06:17:12;;;;;;;;;;;;;;;4.54;100.00;98892.56;5018860;28;20052;-84
2022/12/10 06:19:37;;;;;;;;;;;;;;;4.61;100.00;98895.38;5020092;28;19952;-79
2022/12/10 06:22:03;;;;;;;;;;;;;;;4.68;100.00;98897.19;5021265;28;19945;-89
2022/12/10 06:24:29;;;;;;;;;;;;;;;4.57;100.00;98894.88;5011421;28;20405;-85
2022/12/10 06:26:54;;;;;;;;;;;;;;;4.52;100.00;98891.09;5007630;28;19928;-86
2022/12/10 06:29:19;;;;;;;;;;;;;;;4.53;100.00;98890.97;5004452;28;20069;-89
2022/12/10 06:31:45;;;;;;;;;;;;;;;4.66;100.00;98886.03;4999786;28;19977;-85
2022/12/10 06:34:10;;;;;;;;;;;;;;;4.53;100.00;98872.59;5001957;28;19925;-80
2022/12/10 06:36:36;;;;;;;;;;;;;;;4.54;100.00;98874.22;4994751;28;20025;-81
2022/12/10 06:39:02;;;;;;;;;;;;;;;4.59;100.00;98871.94;4998282;28;20363;-91
2022/12/10 06:41:27;;;;;;;;;;;;;;;4.52;100.00;98873.56;4995918;28;19922;-82
2022/12/10 06:43:53;;;;;;;;;;;;;;;4.52;100.00;98865.69;4999244;28;19933;-85
2022/12/10 06:46:20;;;;;;;;;;;;;;;4.57;100.00;98867.84;4996501;28;19917;-81
2022/12/10 06:48:46;;;;;;;;;;;;;;;4.60;100.00;98868.34;5003292;28;19922;-82
2022/12/10 06:51:13;;;;;;;;;;;;;;;4.54;100.00;98866.34;5016497;28;19959;-82
2022/12/10 06:53:40;;;;;;;;;;;;;;;4.55;100.00;98870.63;5016374;28;19921;-84
2022/12/10 06:56:06;;;;;;;;;;;;;;;4.66;100.00;98877.34;5015537;28;19918;-76
2022/12/10 06:58:32;;;;;;;;;;;;;;;4.76;100.00;98879.78;5014672;28;19921;-81
2022/12/10 07:01:05;;;;;;;;;;;;;;;4.82;100.00;98879.13;5017494;28;20068;-81
2022/12/10 07:03:30;;;;;;;;;;;;;;;4.58;100.00;98865.03;5017386;28;20374;-88
2022/12/10 07:05:59;;;;;;;;;;;;;;;4.51;100.00;98871.09;5018373;28;19928;-88
2022/12/10 07:08:24;;;;;;;;;;;;;;;4.48;100.00;98869.63;5021983;28;20424;-87
2022/12/10 07:10:49;;;;;;;;;;;;;;;4.45;100.00;98869.97;5018755;28;20028;-82
2022/12/10 07:13:15;;;;;;;;;;;;;;;4.56;100.00;98872.25;5022213;28;19925;-78
2022/12/10 07:15:41;;;;;;;;;;;;;;;4.62;100.00;98876.84;5022182;28;19932;-87
2022/12/10 07:18:06;;;;;;;;;;;;;;;4.67;100.00;98871.91;5023671;28;19928;-81
2022/12/10 07:20:31;;;;;;;;;;;;;;;4.58;100.00;98867.66;5022908;28;20281;-82
2022/12/10 07:22:57;;;;;;;;;;;;;;;4.56;100.00;98871.44;5029674;28;19928;-79
2022/12/10 07:27:58;;;;;;;;;;;;;;;4.44;100.00;98870.94;4822061;26;20392;-77
2022/12/10 07:30:23;;;;;;;;;;;;;;;4.42;100.00;98867.66;5049740;28;19921;-78
2022/12/10 07:35:30;;;;;;;;;;;;;;;4.41;100.00;98867.84;3362869;26;19925;-77
2022/12/10 07:37:55;;;;;;;;;;;;;;;4.46;100.00;98876.03;5054142;22;19926;-77
2022/12/10 07:40:21;;;;;;;;;;;;;;;4.54;100.00;98866.34;5042609;28;19922;-81
2022/12/10 07:42:46;;;;;;;;;;;;;;;4.53;100.00;98869.97;5042526;28;19985;-83
2022/12/10 07:45:12;;;;;;;;;;;;;;;4.55;100.00;98875.03;5027226;28;19984;-85
2022/12/10 07:47:41;;;;;;;;;;;;;;;4.55;100.00;98878.47;5020487;28;19921;-79
2022/12/10 07:50:08;;;;;;;;;;;;;;;4.54;100.00;98878.66;5047670;28;19920;-81
2022/12/10 07:52:33;;;;;;;;;;;;;;;4.51;100.00;98879.78;5015038;28;19932;-79
2022/12/10 07:54:59;;;;;;;;;;;;;;;4.54;100.00;98870.78;5046564;28;19925;-79
2022/12/10 07:57:24;;;;;;;;;;;;;;;4.57;100.00;98865.22;5046922;28;19928;-81
2022/12/10 07:59:49;;;;;;;;;;;;;;;4.54;100.00;98873.41;5046015;28;19936;-80
2022/12/10 08:02:17;;;;;;;;;;;;;;;4.55;100.00;98883.72;5047632;28;19917;-81
2022/12/10 08:04:43;;;;;;;;;;;;;;;4.67;100.00;98881.63;5049449;28;19922;-79
2022/12/10 08:07:10;;;;;;;;;;;;;;;4.73;100.00;98882.75;5047017;28;19926;-78
2022/12/10 08:09:35;;;;;;;;;;;;;;;4.65;100.00;98868.66;5048898;28;19921;-79
2022/12/10 08:12:00;;;;;;;;;;;;;;;4.60;100.00;98868.34;5041198;28;19921;-80
2022/12/10 08:14:26;;;;;;;;;;;;;;;4.64;100.00;98880.13;5042078;28;19928;-80
2022/12/10 08:16:51;;;;;;;;;;;;;;;4.73;100.00;98877.50;5043636;28;19991;-85
2022/12/10 08:19:16;;;;;;;;;;;;;;;4.68;100.00;98886.69;5042274;28;19917;-88
2022/12/10 08:21:42;;;;;;;;;;;;;;;4.69;100.00;98883.09;5045548;28;20020;-84
2022/12/10 08:24:07;;;;;;;;;;;;;;;4.67;100.00;98885.03;5023874;28;19976;-88
2022/12/10 08:26:33;;;;;;;;;;;;;;;4.69;100.00;98883.09;5022636;28;19921;-87
2022/12/10 08:28:59;;;;;;;;;;;;;;;4.61;100.00;98875.19;5040465;28;19929;-83
2022/12/10 08:31:25;;;;;;;;;;;;;;;4.60;100.00;98881.47;5022775;28;19925;-84
2022/12/10 08:33:51;;;;;;;;;;;;;;;4.73;100.00;98880.13;5043839;28;20374;-89
2022/12/10 08:36:17;;;;;;;;;;;;;;;4.73;100.00;98885.38;5040343;28;19921;-87
2022/12/10 08:38:43;;;;;;;;;;;;;;;4.78;100.00;98890.94;5042466;28;19926;-83
2022/12/10 08:41:09;;;;;;;;;;;;;;;4.79;100.00;98889.97;5040062;28;20373;-86
2022/12/10 08:43:35;;;;;;;;;;;;;;;4.80;100.00;98889.81;5041043;28;19928;-80
2022/12/10 08:46:01;;;;;;;;;;;;;;;4.93;100.00;98891.91;5024236;28;19921;-81
2022/12/10 08:48:26;;;;;;;;;;;;;;;4.92;100.00;98898.16;5043031;28;19921;-81
2022/12/10 08:50:52;;;;;;;;;;;;;;;4.89;100.00;98903.72;5047275;28;19928;-89
2022/12/10 08:53:17;;;;;;;;;;;;;;;4.82;100.00;98897.50;5045250;28;19967;-92
2022/12/10 08:55:42;;;;;;;;;;;;;;;4.83;100.00;98897.34;5040745;28;19925;-84
2022/12/10 08:58:14;;;;;;;;;;;;;;;4.78;100.00;98893.56;5047396;28;19927;-81
2022/12/10 09:00:39;;;;;;;;;;;;;;;4.78;100.00;98891.75;5049127;28;19922;-84
2022/12/10 09:03:05;;;;;;;;;;;;;;;4.97;100.00;98890.63;5046285;28;20023;-91
2022/12/10 09:05:30;;;;;;;;;;;;;;;4.97;100.00;98885.38;5046454;28;19957;-81
2022/12/10 09:07:56;;;;;;;;;;;;;;;4.94;100.00;98885.69;5046514;28;19928;-80
2022/12/10 09:10:22;;;;;;;;;;;;;;;5.06;100.00;98884.34;5041321;28;19920;-79
2022/12/10 09:12:47;;;;;;;;;;;;;;;5.16;100.00;98891.06;5050167;28;19956;-80
2022/12/10 09:15:12;;;;;;;;;;;;;;;5.20;100.00;98896.81;5049593;28;20024;-82
2022/12/10 09:17:45;;;;;;;;;;;;;;;5.28;100.00;98894.16;5048567;28;19921;-85
2022/12/10 09:20:12;;;;;;;;;;;;;;;5.19;100.00;98884.66;5050648;28;19921;-83
2022/12/10 09:22:38;;;;;;;;;;;;;;;5.16;100.00;98885.81;5052026;28;19921;-81
2022/12/10 09:25:04;;;;;;;;;;;;;;;5.20;100.00;98891.56;5047996;28;19921;-90
2022/12/10 09:27:30;;;;;;;;;;;;;;;5.39;100.00;98891.16;5043435;28;20377;-90
2022/12/10 09:29:56;;;;;;;;;;;;;;;5.22;100.00;98893.03;5039260;28;19921;-86
2022/12/10 09:32:24;;;;;;;;;;;;;;;5.11;100.00;98893.34;5037805;28;19917;-83
2022/12/10 09:34:52;;;;;;;;;;;;;;;5.27;100.00;98892.50;5038633;28;20305;-86
2022/12/10 09:37:18;;;;;;;;;;;;;;;5.24;100.00;98897.28;5017872;28;20404;-83
2022/12/10 09:39:43;;;;;;;;;;;;;;;5.29;100.00;98893.16;5037814;28;20005;-87
2022/12/10 09:42:16;;;;;;;;;;;;;;;5.25;100.00;98881.34;5038065;28;19925;-83
2022/12/10 09:44:47;;;;;;;;;;;;;;;5.21;100.00;98883.50;5031465;28;19971;-83
2022/12/10 09:47:12;;;;;;;;;;;;;;;5.34;100.00;98882.13;5034801;28;19928;-84
2022/12/10 09:49:56;;;;;;;;;;;;;;;5.33;100.00;98876.09;5034476;28;19925;-81
2022/12/10 09:52:23;;;;;;;;;;;;;;;5.36;100.00;98880.19;5016685;28;20362;-84
2022/12/10 09:54:59;;;;;;;;;;;;;;;5.36;100.00;98878.38;5034717;28;19921;-87
2022/12/10 09:57:28;;;;;;;;;;;;;;;5.31;100.00;98867.53;5034755;28;19924;-80
2022/12/10 09:59:53;;;;;;;;;;;;;;;5.45;100.00;98866.84;5035788;28;20373;-85
2022/12/10 10:02:22;;;;;;;;;;;;;;;5.44;100.00;98865.19;5018735;28;19964;-82
2022/12/10 10:04:52;;;;;;;;;;;;;;;5.41;100.00;98860.28;5036964;28;19921;-84
2022/12/10 10:07:23;;;;;;;;;;;;;;;5.50;100.00;98864.50;5036885;28;20259;-80
2022/12/10 10:09:48;;;;;;;;;;;;;;;5.68;100.00;98859.03;5035764;28;19921;-83
2022/12/10 10:12:15;;;;;;;;;;;;;;;5.77;100.00;98846.69;5034377;28;20267;-83
2022/12/10 10:14:42;;;;;;;;;;;;;;;5.93;100.00;98849.25;5030348;28;20397;-81
2022/12/10 10:17:11;;;;;;;;;;;;;;;5.80;100.00;98846.34;5030958;28;19944;-83
2022/12/10 10:19:38;;;;;;;;;;;;;;;6.07;100.00;98840.59;5034199;28;19921;-81
2022/12/10 10:22:04;;;;;;;;;;;;;;;5.98;100.00;98839.00;5034657;28;19960;-86
2022/12/10 10:24:37;;;;;;;;;;;;;;;6.03;100.00;98840.13;5033131;28;19968;-82
2022/12/10 10:27:28;;;;;;;;;;;;;;;5.76;100.00;98831.88;5033968;28;20008;-86
2022/12/10 10:29:55;;;;;;;;;;;;;;;5.82;100.00;98828.56;5028645;28;19921;-83
2022/12/10 10:32:22;;;;;;;;;;;;;;;5.73;100.00;98827.81;5018120;28;19932;-85
2022/12/10 10:34:52;;;;;;;;;;;;;;;5.70;100.00;98820.25;5039698;28;19921;-81
2022/12/10 10:37:41;;;;;;;;;;;;;;;5.72;100.00;98819.09;5039260;28;19988;-82
2022/12/10 10:40:07;;;;;;;;;;;;;;;5.78;100.00;98822.84;4999152;28;19932;-85
2022/12/10 10:42:37;;;;;;;;;;;;;;;5.67;100.00;98826.66;5019438;28;19967;-82
2022/12/10 10:45:04;;;;;;;;;;;;;;;5.95;100.00;98818.31;5020589;28;19971;-85
2022/12/10 10:47:31;;;;;;;;;;;;;;;5.85;100.00;98825.59;5007878;28;19957;-86
2022/12/10 10:52:34;;;;;;;;;;;;;;;5.93;100.00;98825.59;4999203;28;19928;-86
2022/12/10 10:55:00;;;;;;;;;;;;;;;5.84;100.00;98819.50;4981154;28;19921;-81
2022/12/10 10:57:28;;;;;;;;;;;;;;;5.85;100.00;98807.19;5016727;28;19925;-85
2022/12/10 10:59:56;;;;;;;;;;;;;;;5.78;100.00;98812.31;4992554;28;20306;-81
2022/12/10 11:02:34;;;;;;;;;;;;;;;5.82;100.00;98812.78;5008239;28;19921;-79
2022/12/10 11:05:05;;;;;;;;;;;;;;;6.05;100.00;98803.13;5028185;28;19921;-83
2022/12/10 11:07:35;;;;;;;;;;;;;;;6.02;100.00;98798.22;5032459;28;19995;-85
2022/12/10 11:10:01;;;;;;;;;;;;;;;6.09;100.00;98799.19;5014526;28;19921;-80
2022/12/10 11:12:27;;;;;;;;;;;;;;;5.90;100.00;98794.38;5023891;28;19925;-82
2022/12/10 11:14:52;;;;;;;;;;;;;;;5.80;100.00;98788.50;5019751;28;20396;-81
2022/12/10 11:17:20;;;;;;;;;;;;;;;5.82;100.00;98789.13;5033350;28;19952;-84
2022/12/10 11:19:51;;;;;;;;;;;;;;;6.03;100.00;98778.84;5033485;28;19921;-86
2022/12/10 11:22:21;;;;;;;;;;;;;;;6.02;100.00;98771.94;5033753;28;19921;-82
2022/12/10 11:24:47;;;;;;;;;;;;;;;5.91;100.00;98769.72;5032609;28;19963;-84
2022/12/10 11:27:19;;;;;;;;;;;;;;;6.13;100.00;98768.91;5033897;28;19921;-84
2022/12/10 11:30:03;;;;;;;;;;;;;;;6.12;100.00;98772.53;5014939;28;19928;-89
2022/12/10 11:32:43;;;;;;;;;;;;;;;6.12;100.00;98767.25;5015109;28;19981;-82
2022/12/10 11:35:14;;;;;;;;;;;;;;;5.90;100.00;98763.63;5022007;28;19921;-82
2022/12/10 11:37:46;;;;;;;;;;;;;;;5.83;100.00;98756.59;5034569;28;19925;-86
2022/12/10 11:40:30;;;;;;;;;;;;;;;5.82;100.00;98752.34;5035258;28;19963;-80
2022/12/10 11:43:06;;;;;;;;;;;;;;;5.80;100.00;98754.31;5034703;28;19963;-78
2022/12/10 11:45:50;;;;;;;;;;;;;;;5.93;100.00;98749.34;5035484;28;20274;-85
2022/12/10 11:48:25;;;;;;;;;;;;;;;5.87;100.00;98744.75;5034316;28;19964;-84
2022/12/10 11:50:58;;;;;;;;;;;;;;;5.81;100.00;98742.81;5034014;28;19925;-83
2022/12/10 11:53:23;;;;;;;;;;;;;;;5.69;100.00;98735.34;5033980;28;20452;-83
2022/12/10 11:55:54;;;;;;;;;;;;;;;5.86;100.00;98741.34;5015536;28;20019;-81
2022/12/10 11:58:23;;;;;;;;;;;;;;;6.06;100.00;98736.41;5033604;28;19929;-83
2022/12/10 12:00:54;;;;;;;;;;;;;;;6.22;100.00;98733.63;5033691;28;19990;-85
2022/12/10 12:03:21;;;;;;;;;;;;;;;6.06;100.00;98733.78;5022685;28;20374;-80
2022/12/10 12:05:55;;;;;;;;;;;;;;;5.91;100.00;98725.00;5013346;28;19928;-84
2022/12/10 12:08:38;;;;;;;;;;;;;;;6.03;100.00;98723.63;5014141;28;19925;-83
2022/12/10 12:11:03;;;;;;;;;;;;;;;6.06;100.00;98721.47;5013944;28;19921;-87
2022/12/10 12:13:36;;;;;;;;;;;;;;;5.96;100.00;98720.06;5016293;28;19922;-89
2022/12/10 12:16:01;;;;;;;;;;;;;;;5.86;100.00;98719.47;5015312;28;19922;-80
2022/12/10 12:18:33;;;;;;;;;;;;;;;6.07;100.00;98720.44;5014056;28;19979;-84
2022/12/10 12:21:01;;;;;;;;;;;;;;;6.19;100.00;98719.03;5013870;28;19940;-81
2022/12/10 12:23:29;;;;;;;;;;;;;;;6.21;100.00;98719.66;5013794;28;19922;-87
2022/12/10 12:26:04;;;;;;;;;;;;;;;6.22;100.00;98709.97;5013692;28;19921;-81
2022/12/10 12:28:34;;;;;;;;;;;;;;;6.09;100.00;98715.03;5013638;28;19929;-84
2022/12/10 12:31:15;;;;;;;;;;;;;;;6.12;100.00;98701.50;5020737;28;19921;-87
2022/12/10 12:33:46;;;;;;;;;;;;;;;6.05;100.00;98695.31;5015328;28;19921;-82
2022/12/10 12:36:24;;;;;;;;;;;;;;;5.90;100.00;98699.75;5033676;28;19984;-83
2022/12/10 12:38:59;;;;;;;;;;;;;;;5.83;100.00;98694.34;5016172;28;19925;-87
2022/12/10 12:41:34;;;;;;;;;;;;;;;5.88;100.00;98696.44;5036483;28;20394;-82
2022/12/10 12:44:03;;;;;;;;;;;;;;;5.93;100.00;98689.66;5036427;28;20008;-83
2022/12/10 12:46:43;;;;;;;;;;;;;;;6.00;100.00;98695.06;5018483;28;20242;-85
2022/12/10 12:49:29;;;;;;;;;;;;;;;6.31;100.00;98698.38;5036756;28;19932;-81
2022/12/10 12:52:01;;;;;;;;;;;;;;;6.23;100.00;98701.09;5037492;28;20285;-86
2022/12/10 12:54:26;;;;;;;;;;;;;;;6.21;100.00;98689.91;5037431;28;19928;-80
2022/12/10 12:56:58;;;;;;;;;;;;;;;6.14;100.00;98692.44;5036770;28;19921;-83
2022/12/10 12:59:36;;;;;;;;;;;;;;;6.23;100.00;98685.31;5018824;28;19921;-84
2022/12/10 13:02:27;;;;;;;;;;;;;;;6.14;100.00;98681.91;5036202;28;19928;-86
2022/12/10 13:04:53;;;;;;;;;;;;;;;6.25;100.00;98680.69;4998794;28;20298;-85
2022/12/10 13:07:18;;;;;;;;;;;;;;;6.36;100.00;98688.13;5036856;28;19927;-84
2022/12/10 13:09:48;;;;;;;;;;;;;;;6.44;100.00;98685.41;5018439;28;19921;-84
2022/12/10 13:12:30;;;;;;;;;;;;;;;6.44;100.00;98682.78;5036176;28;19921;-87